Terminal Aerodrome Forecast
Issued by NWS Milwaukee/Sullivan, WI

Home | Current Version | Previous Version | Text Only | Print | Product List | Glossary On
Versions: 1 2 3 4 5 6 7 8 9 10 11 12 13 14 15 16 17 18 19 20 21 22 23 24 25 26 27 28 29 30 31 32 33 34 35 36 37 38 39 40 41 42 43 44 45 46 47 48 49 50
000
FTUS43 KMKX 210200 AAA
TAFMSN
TAF AMD
KMSN 210200Z 2102/2124 16005KT P6SM -SN SCT010 OVC020
     FM210800 16004KT 5SM BR OVC008
     FM211200 16005KT 3SM -FZDZ BR OVC003
     FM211300 16006KT 3SM -FZDZ BR OVC008
     FM211600 17009KT 5SM BR OVC008
     FM211900 17009KT 6SM BR OVC015=

USA.gov is the U.S. government's official web portal to all federal, state and local government web resources and services.